West Union, Nebraska
Current Conditions -  °F | °C
As of 12:53 AM on Sunday 26 Oct 2014 (Local Time) from KBBW Reporting Station
Clear Clear  
Wind Chill: 52°   Ceiling: Unl
Heat Index: 52°   Visibility: 10mi
Dew Point: 42°   Wind: 6mph
Humidity: 69%   Direction: 110°ESE
Pressure: 29.94"   Gusts: NA
Location:  41.685°N, 99.3848°W
Report Text: KBBW 260553Z AUTO 11005KT 10SM CLR 11/06 A2994 RMK AO2 SLP127 T01110056 10167 20111 402390039 58022
Loading
Personal Weather Stations






























Interactive Weather Map
Tropical Storm Tracking
New forecast layout! Learn more

10-Day Weather Forecast

Advertisements
Track Severe Weather on mobile